createdAt,value
2022-08-24T00:00:46.318Z,16.64
2022-08-24T00:01:46.572Z,16.69
2022-08-24T00:02:46.421Z,16.59
2022-08-24T00:03:46.291Z,16.62
2022-08-24T00:04:47.079Z,16.59
2022-08-24T00:05:46.279Z,16.59
2022-08-24T00:06:46.319Z,16.62
2022-08-24T00:07:46.274Z,16.64
2022-08-24T00:08:46.249Z,16.66
2022-08-24T00:09:49.536Z,16.61
2022-08-24T00:10:46.234Z,16.62
2022-08-24T00:11:46.227Z,16.61
2022-08-24T00:12:46.254Z,16.51
2022-08-24T00:13:46.214Z,16.64
2022-08-24T00:14:46.196Z,16.54
2022-08-24T00:15:47.198Z,16.54
2022-08-24T00:16:46.232Z,16.47
2022-08-24T00:17:46.208Z,16.47
2022-08-24T00:18:46.177Z,16.44
2022-08-24T00:19:46.161Z,16.39
2022-08-24T00:20:46.153Z,16.51
2022-08-24T00:21:46.161Z,16.31
2022-08-24T00:22:46.185Z,16.44
2022-08-24T00:23:46.143Z,16.38
2022-08-24T00:24:46.119Z,16.44
2022-08-24T00:25:46.115Z,16.31
2022-08-24T00:26:46.134Z,16.32
2022-08-24T00:27:46.100Z,16.44
2022-08-24T00:28:46.092Z,16.32
2022-08-24T00:29:46.086Z,16.36
2022-08-24T00:30:46.075Z,16.24
2022-08-24T00:31:46.117Z,16.25
2022-08-24T00:32:46.057Z,16.24
2022-08-24T00:33:46.048Z,16.12
2022-08-24T00:34:58.300Z,16.15
2022-08-24T00:35:47.037Z,16.20
2022-08-24T00:36:46.054Z,16.13
2022-08-24T00:37:46.020Z,16.17
2022-08-24T00:38:46.018Z,16.10
2022-08-24T00:39:46.043Z,16.10
2022-08-24T00:40:45.999Z,16.00
2022-08-24T00:41:46.025Z,16.08
2022-08-24T00:42:45.992Z,15.95
2022-08-24T00:43:45.973Z,15.95
2022-08-24T00:44:45.961Z,15.95
2022-08-24T00:45:46.014Z,15.97
2022-08-24T00:46:45.976Z,15.91
2022-08-24T00:47:47.918Z,15.82
2022-08-24T00:48:45.928Z,15.77
2022-08-24T00:49:45.918Z,15.83
2022-08-24T00:50:45.906Z,15.87
2022-08-24T00:51:45.931Z,15.87
2022-08-24T00:52:46.931Z,15.85
2022-08-24T00:53:45.886Z,15.88
2022-08-24T00:54:46.621Z,15.82
2022-08-24T00:55:46.871Z,15.87
2022-08-24T00:56:45.893Z,15.82
2022-08-24T00:57:45.854Z,15.87
2022-08-24T00:58:45.847Z,15.82
2022-08-24T00:59:45.841Z,15.83
2022-08-24T01:00:46.345Z,15.90
2022-08-24T01:01:47.416Z,15.90
2022-08-24T01:02:45.857Z,15.80
2022-08-24T01:03:45.803Z,15.90
2022-08-24T01:04:45.796Z,15.83
2022-08-24T01:05:46.065Z,15.77
2022-08-24T01:06:45.809Z,15.85
2022-08-24T01:07:45.765Z,15.79
2022-08-24T01:08:45.762Z,15.73
2022-08-24T01:09:45.747Z,15.73
2022-08-24T01:10:45.743Z,15.68
2022-08-24T01:11:45.739Z,15.64
2022-08-24T01:12:59.601Z,15.64
2022-08-24T01:13:46.723Z,15.61
2022-08-24T01:14:45.710Z,15.54
2022-08-24T01:15:45.701Z,15.54
2022-08-24T01:16:45.726Z,15.54
2022-08-24T01:17:45.683Z,15.61
2022-08-24T01:18:45.673Z,15.58
2022-08-24T01:19:45.666Z,15.52
2022-08-24T01:20:45.660Z,15.46
2022-08-24T01:21:45.662Z,15.44
2022-08-24T01:22:45.697Z,15.36
2022-08-24T01:23:45.636Z,15.42
2022-08-24T01:24:45.629Z,15.32
2022-08-24T01:25:45.618Z,15.35
2022-08-24T01:26:45.611Z,15.30
2022-08-24T01:27:45.638Z,15.30
2022-08-24T01:28:45.604Z,15.32
2022-08-24T01:29:45.587Z,15.32
2022-08-24T01:30:45.578Z,15.32
2022-08-24T01:31:45.629Z,15.30
2022-08-24T01:32:45.598Z,15.37
2022-08-24T01:33:45.548Z,15.37
2022-08-24T01:34:45.549Z,15.28
2022-08-24T01:35:45.539Z,15.30
2022-08-24T01:36:45.539Z,15.33
2022-08-24T01:37:45.556Z,15.30
2022-08-24T01:38:45.517Z,15.32
2022-08-24T01:39:45.525Z,15.32
2022-08-24T01:40:45.504Z,15.28
2022-08-24T01:41:45.492Z,15.37
2022-08-24T01:42:45.526Z,15.36
2022-08-24T01:43:45.477Z,15.39
2022-08-24T01:44:45.491Z,15.33
2022-08-24T01:45:45.457Z,15.22
2022-08-24T01:46:45.528Z,15.27
2022-08-24T01:47:45.482Z,15.35
2022-08-24T01:48:45.430Z,15.25
2022-08-24T01:49:45.427Z,15.21
2022-08-24T01:50:45.417Z,15.22
2022-08-24T01:51:45.414Z,15.17
2022-08-24T01:53:14.565Z,15.18
2022-08-24T01:53:47.398Z,15.14
2022-08-24T01:54:45.385Z,15.22
2022-08-24T01:55:45.380Z,15.21
2022-08-24T01:56:45.379Z,15.15
2022-08-24T01:57:45.393Z,15.04
2022-08-24T01:58:45.352Z,15.06
2022-08-24T01:59:45.347Z,15.04
2022-08-24T02:00:45.341Z,15.00
2022-08-24T02:01:45.425Z,15.03
2022-08-24T02:02:45.372Z,15.07
2022-08-24T02:03:45.313Z,15.02
2022-08-24T02:04:45.299Z,15.02
2022-08-24T02:05:45.292Z,15.07
2022-08-24T02:06:45.279Z,15.06
2022-08-24T02:07:45.306Z,14.96
2022-08-24T02:08:45.267Z,15.12
2022-08-24T02:09:45.262Z,15.03
2022-08-24T02:10:54.886Z,14.96
2022-08-24T02:11:46.248Z,14.95
2022-08-24T02:12:45.268Z,14.99
2022-08-24T02:13:45.239Z,15.02
2022-08-24T02:14:45.222Z,14.93
2022-08-24T02:15:45.240Z,14.91
2022-08-24T02:16:45.209Z,14.97
2022-08-24T02:17:45.257Z,14.93
2022-08-24T02:18:45.188Z,14.99
2022-08-24T02:19:45.177Z,14.96
2022-08-24T02:20:45.220Z,14.93
2022-08-24T02:21:45.166Z,14.85
2022-08-24T02:22:45.178Z,14.85
2022-08-24T02:23:45.147Z,14.74
2022-08-24T02:24:45.190Z,14.81
2022-08-24T02:25:45.143Z,14.77
2022-08-24T02:26:45.125Z,14.70
2022-08-24T02:27:45.141Z,14.74
2022-08-24T02:28:45.103Z,14.61
2022-08-24T02:29:45.099Z,14.73
2022-08-24T02:30:45.135Z,14.69
2022-08-24T02:31:45.080Z,14.66
2022-08-24T02:32:45.103Z,14.63
2022-08-24T02:33:45.069Z,14.59
2022-08-24T02:34:45.057Z,14.56
2022-08-24T02:35:45.049Z,14.69
2022-08-24T02:36:45.046Z,14.63
2022-08-24T02:37:45.056Z,14.65
2022-08-24T02:38:45.019Z,14.65
2022-08-24T02:39:45.046Z,14.61
2022-08-24T02:40:45.000Z,14.56
2022-08-24T02:41:44.992Z,14.66
2022-08-24T02:42:45.014Z,14.53
2022-08-24T02:43:44.980Z,14.59
2022-08-24T02:44:44.967Z,14.48
2022-08-24T02:45:49.582Z,14.59
2022-08-24T02:46:46.974Z,14.47
2022-08-24T02:47:44.959Z,14.45
2022-08-24T02:48:45.933Z,14.51
2022-08-24T02:49:45.926Z,14.37
2022-08-24T02:50:44.917Z,14.44
2022-08-24T02:51:45.562Z,14.36
2022-08-24T02:52:44.938Z,14.43
2022-08-24T02:53:44.897Z,14.47
2022-08-24T02:54:44.880Z,14.45
2022-08-24T02:55:44.875Z,14.38
2022-08-24T02:56:44.876Z,14.40
2022-08-24T02:57:44.899Z,14.40
2022-08-24T02:58:44.864Z,14.41
2022-08-24T02:59:44.853Z,14.37
2022-08-24T03:00:44.845Z,14.41
2022-08-24T03:01:44.945Z,14.26
2022-08-24T03:02:44.900Z,14.36
2022-08-24T03:03:44.816Z,14.29
2022-08-24T03:04:44.810Z,14.32
2022-08-24T03:05:44.803Z,14.29
2022-08-24T03:06:44.796Z,14.38
2022-08-24T03:07:44.803Z,14.33
2022-08-24T03:08:44.781Z,14.28
2022-08-24T03:09:45.766Z,14.37
2022-08-24T03:10:44.757Z,14.37
2022-08-24T03:11:45.479Z,14.30
2022-08-24T03:12:44.771Z,14.28
2022-08-24T03:13:44.733Z,14.25
2022-08-24T03:14:44.713Z,14.23
2022-08-24T03:15:44.756Z,14.28
2022-08-24T03:16:44.699Z,14.25
2022-08-24T03:17:44.727Z,14.13
2022-08-24T03:18:44.691Z,14.19
2022-08-24T03:19:44.677Z,14.20
2022-08-24T03:20:44.681Z,14.19
2022-08-24T03:21:44.662Z,14.19
2022-08-24T03:22:44.685Z,14.07
2022-08-24T03:23:44.652Z,14.22
2022-08-24T03:24:44.641Z,14.25
2022-08-24T03:25:44.633Z,14.22
2022-08-24T03:26:44.724Z,14.13
2022-08-24T03:27:44.645Z,14.19
2022-08-24T03:28:45.229Z,14.19
2022-08-24T03:29:44.615Z,14.22
2022-08-24T03:30:48.178Z,14.15
2022-08-24T03:31:44.589Z,14.10
2022-08-24T03:32:44.606Z,14.08
2022-08-24T03:33:44.568Z,14.13
2022-08-24T03:34:44.564Z,14.07
2022-08-24T03:35:44.557Z,14.08
2022-08-24T03:36:44.545Z,14.03
2022-08-24T03:37:44.570Z,14.01
2022-08-24T03:38:44.530Z,14.03
2022-08-24T03:39:44.609Z,14.03
2022-08-24T03:40:44.508Z,13.92
2022-08-24T03:41:44.489Z,14.00
2022-08-24T03:42:44.518Z,13.95
2022-08-24T03:43:44.480Z,13.92
2022-08-24T03:44:44.477Z,13.88
2022-08-24T03:45:44.489Z,13.86
2022-08-24T03:46:44.458Z,13.78
2022-08-24T03:47:44.490Z,13.86
2022-08-24T03:48:44.477Z,13.75
2022-08-24T03:49:44.441Z,13.74
2022-08-24T03:50:44.423Z,13.74
2022-08-24T03:51:44.427Z,13.77
2022-08-24T03:52:44.445Z,13.72
2022-08-24T03:53:44.403Z,13.70
2022-08-24T03:54:44.399Z,13.78
2022-08-24T03:55:44.387Z,13.74
2022-08-24T03:56:44.382Z,13.72
2022-08-24T03:57:44.408Z,13.75
2022-08-24T03:58:44.364Z,13.78
2022-08-24T03:59:46.544Z,13.82
2022-08-24T04:00:44.360Z,13.74
2022-08-24T04:01:44.340Z,13.74
2022-08-24T04:02:44.460Z,13.85
2022-08-24T04:03:44.326Z,13.88
2022-08-24T04:04:44.370Z,13.86
2022-08-24T04:05:44.316Z,13.85
2022-08-24T04:06:44.364Z,13.72
2022-08-24T04:07:44.327Z,13.78
2022-08-24T04:08:44.290Z,13.78
2022-08-24T04:09:44.287Z,13.70
2022-08-24T04:10:44.264Z,13.78
2022-08-24T04:11:44.259Z,13.78
2022-08-24T04:12:44.242Z,13.93
2022-08-24T04:13:44.277Z,13.83
2022-08-24T04:14:44.233Z,13.85
2022-08-24T04:15:44.225Z,13.80
2022-08-24T04:16:44.328Z,13.82
2022-08-24T04:17:44.210Z,13.74
2022-08-24T04:18:44.232Z,13.85
2022-08-24T04:19:44.194Z,13.78
2022-08-24T04:20:44.180Z,13.77
2022-08-24T04:21:44.179Z,13.85
2022-08-24T04:22:44.161Z,13.75
2022-08-24T04:23:47.003Z,13.78
2022-08-24T04:26:09.612Z,13.82
2022-08-24T04:27:09.632Z,13.82
2022-08-24T04:28:09.656Z,13.78
2022-08-24T04:29:09.616Z,13.83
2022-08-24T04:30:09.616Z,13.83
2022-08-24T04:31:09.600Z,13.88
2022-08-24T04:32:09.668Z,13.85
2022-08-24T04:33:09.615Z,13.90
2022-08-24T04:34:09.573Z,13.88
2022-08-24T04:35:09.562Z,13.88
2022-08-24T04:36:09.555Z,13.88
2022-08-24T04:37:11.468Z,13.90
2022-08-24T04:38:09.545Z,13.83
2022-08-24T04:39:09.561Z,13.97
2022-08-24T04:40:09.653Z,13.89
2022-08-24T04:41:09.516Z,13.93
2022-08-24T04:42:09.507Z,13.96
2022-08-24T04:43:09.498Z,14.03
2022-08-24T04:44:09.522Z,14.01
2022-08-24T04:45:09.484Z,14.04
2022-08-24T04:46:09.560Z,14.03
2022-08-24T04:47:09.466Z,14.01
2022-08-24T04:48:09.452Z,13.96
2022-08-24T04:49:09.473Z,13.95
2022-08-24T04:50:09.437Z,13.92
2022-08-24T04:51:13.862Z,13.90
2022-08-24T04:52:09.426Z,14.10
2022-08-24T04:53:09.405Z,14.26
2022-08-24T04:54:09.434Z,14.43
2022-08-24T04:55:09.391Z,14.63
2022-08-24T04:56:09.386Z,14.81
2022-08-24T04:57:09.369Z,14.91
2022-08-24T04:58:09.370Z,15.09
2022-08-24T04:59:09.387Z,15.07
2022-08-24T05:00:09.352Z,15.17
2022-08-24T05:01:09.395Z,15.36
2022-08-24T05:02:09.377Z,15.48
2022-08-24T05:03:09.319Z,15.75
2022-08-24T05:04:09.347Z,15.75
2022-08-24T05:05:09.313Z,15.92
2022-08-24T05:06:09.305Z,16.08
2022-08-24T05:07:09.288Z,16.21
2022-08-24T05:08:09.287Z,16.10
2022-08-24T05:09:09.296Z,16.32
2022-08-24T05:10:09.262Z,16.43
2022-08-24T05:11:09.254Z,16.41
2022-08-24T05:12:09.251Z,16.38
2022-08-24T05:13:09.230Z,16.28
2022-08-24T05:14:09.663Z,16.54
2022-08-24T05:15:09.218Z,16.62
2022-08-24T05:16:09.456Z,16.83
2022-08-24T05:17:09.280Z,16.99
2022-08-24T05:18:23.778Z,17.05
2022-08-24T05:19:10.377Z,17.24
2022-08-24T05:20:10.329Z,17.48
2022-08-24T05:21:10.322Z,17.70
2022-08-24T05:22:10.309Z,17.95
2022-08-24T05:23:25.263Z,17.95
2022-08-24T05:24:11.319Z,18.05
2022-08-24T05:25:10.282Z,18.23
2022-08-24T05:26:10.299Z,18.30
2022-08-24T05:27:10.266Z,18.46
2022-08-24T05:28:10.261Z,18.55
2022-08-24T05:29:10.283Z,18.70
2022-08-24T05:30:10.244Z,18.67
2022-08-24T05:31:10.268Z,18.73
2022-08-24T05:32:10.235Z,18.73
2022-08-24T05:33:10.231Z,18.67
2022-08-24T05:34:10.256Z,18.59
2022-08-24T05:35:10.215Z,18.70
2022-08-24T05:36:10.196Z,18.75
2022-08-24T05:37:10.197Z,18.81
2022-08-24T05:38:10.181Z,18.96
2022-08-24T05:39:11.449Z,19.22
2022-08-24T05:40:11.197Z,19.42
2022-08-24T05:41:10.157Z,19.49
2022-08-24T05:42:10.154Z,19.44
2022-08-24T05:43:10.147Z,19.55
2022-08-24T05:44:10.166Z,19.64
2022-08-24T05:45:10.129Z,19.74
2022-08-24T05:46:10.164Z,19.88
2022-08-24T05:47:10.114Z,19.97
2022-08-24T05:48:10.103Z,20.06
2022-08-24T05:49:10.130Z,20.24
2022-08-24T05:50:10.087Z,20.40
2022-08-24T05:51:10.074Z,20.56
2022-08-24T05:52:10.066Z,20.56
2022-08-24T05:53:10.054Z,20.65
2022-08-24T05:54:10.088Z,20.67
2022-08-24T05:55:10.047Z,20.62
2022-08-24T05:56:10.036Z,20.74
2022-08-24T05:57:10.023Z,20.74
2022-08-24T05:58:10.985Z,20.75
2022-08-24T05:59:11.055Z,20.75
2022-08-24T06:00:10.001Z,21.06
2022-08-24T06:01:10.001Z,20.92
2022-08-24T06:02:10.070Z,21.21
2022-08-24T06:03:11.953Z,21.47
2022-08-24T06:04:09.972Z,21.65
2022-08-24T06:05:10.006Z,21.82
2022-08-24T06:06:09.955Z,22.01
2022-08-24T06:07:09.942Z,22.05
2022-08-24T06:08:09.932Z,21.90
2022-08-24T06:09:09.926Z,21.50
2022-08-24T06:10:34.839Z,21.63
2022-08-24T06:11:11.911Z,21.57
2022-08-24T06:12:09.900Z,21.55
2022-08-24T06:13:09.886Z,21.55
2022-08-24T06:14:09.889Z,21.69
2022-08-24T06:15:09.898Z,21.89
2022-08-24T06:16:22.425Z,22.47
2022-08-24T06:17:11.947Z,22.43
2022-08-24T06:18:09.917Z,22.60
2022-08-24T06:19:09.843Z,22.59
2022-08-24T06:20:09.863Z,22.68
2022-08-24T06:21:09.826Z,22.69
2022-08-24T06:22:09.814Z,22.93
2022-08-24T06:23:09.823Z,22.80
2022-08-24T06:24:09.802Z,22.65
2022-08-24T06:25:09.823Z,22.70
2022-08-24T06:26:14.701Z,22.90
2022-08-24T06:27:11.777Z,23.00
2022-08-24T06:28:09.772Z,23.10
2022-08-24T06:29:09.762Z,23.31
2022-08-24T06:30:09.792Z,23.63
2022-08-24T06:31:09.860Z,24.00
2022-08-24T06:32:09.754Z,24.23
2022-08-24T06:33:09.750Z,24.35
2022-08-24T06:34:09.745Z,24.15
2022-08-24T06:35:11.214Z,24.40
2022-08-24T06:36:09.716Z,24.26
2022-08-24T06:37:09.700Z,24.29
2022-08-24T06:38:09.699Z,24.14
2022-08-24T06:39:10.132Z,23.95
2022-08-24T06:40:09.767Z,24.05
2022-08-24T06:41:09.675Z,24.21
2022-08-24T06:42:09.658Z,24.55
2022-08-24T06:43:09.645Z,24.60
2022-08-24T06:44:09.645Z,24.62
2022-08-24T06:45:09.666Z,24.82
2022-08-24T06:46:09.663Z,24.58
2022-08-24T06:47:11.645Z,24.78
2022-08-24T06:48:09.609Z,25.28
2022-08-24T06:49:09.609Z,25.65
2022-08-24T06:50:09.630Z,25.70
2022-08-24T06:51:09.590Z,25.95
2022-08-24T06:52:09.575Z,26.33
2022-08-24T06:53:09.580Z,26.78
2022-08-24T06:54:09.560Z,26.53
2022-08-24T06:55:09.582Z,26.38
2022-08-24T06:56:09.543Z,26.43
2022-08-24T06:57:09.542Z,26.70
2022-08-24T06:58:09.531Z,26.77
2022-08-24T06:59:09.517Z,26.63
2022-08-24T07:00:09.561Z,26.86
2022-08-24T07:01:09.509Z,26.72
2022-08-24T07:02:09.554Z,27.04
2022-08-24T07:03:09.561Z,26.71
2022-08-24T07:04:09.491Z,26.81
2022-08-24T07:05:09.506Z,26.95
2022-08-24T07:06:09.469Z,27.09
2022-08-24T07:07:09.454Z,27.49
2022-08-24T07:08:09.448Z,27.85
2022-08-24T07:09:09.446Z,28.24
2022-08-24T07:10:09.469Z,28.67
2022-08-24T07:11:09.428Z,28.51
2022-08-24T07:12:09.689Z,28.97
2022-08-24T07:13:09.413Z,28.82
2022-08-24T07:14:09.394Z,28.71
2022-08-24T07:15:11.529Z,28.78
2022-08-24T07:16:10.524Z,28.69
2022-08-24T07:17:09.378Z,28.88
2022-08-24T07:18:09.363Z,29.50
2022-08-24T07:19:09.361Z,29.47
2022-08-24T07:20:09.356Z,29.39
2022-08-24T07:21:09.413Z,29.53
2022-08-24T07:22:09.338Z,29.42
2022-08-24T07:23:09.347Z,29.39
2022-08-24T07:24:09.316Z,29.60
2022-08-24T07:25:09.311Z,29.72
2022-08-24T07:26:09.331Z,30.06
2022-08-24T07:27:09.294Z,30.21
2022-08-24T07:28:10.249Z,30.22
2022-08-24T07:29:24.992Z,30.22
2022-08-24T07:30:26.356Z,30.29
2022-08-24T07:31:11.389Z,30.20
2022-08-24T07:32:09.259Z,30.36
2022-08-24T07:33:09.253Z,30.96
2022-08-24T07:34:09.240Z,31.53
2022-08-24T07:35:09.244Z,31.44
2022-08-24T07:36:09.255Z,31.87
2022-08-24T07:37:09.217Z,31.94
2022-08-24T07:38:09.209Z,31.87
2022-08-24T07:39:09.199Z,31.51
2022-08-24T07:40:09.331Z,31.81
2022-08-24T07:41:36.553Z,31.73
2022-08-24T07:42:15.855Z,31.38
2022-08-24T07:43:11.173Z,31.67
2022-08-24T07:44:09.170Z,31.94
2022-08-24T07:45:09.170Z,31.93
2022-08-24T07:46:09.217Z,32.01
2022-08-24T07:47:34.266Z,31.86
2022-08-24T07:48:14.082Z,31.82
2022-08-24T07:49:29.464Z,31.90
2022-08-24T07:50:11.121Z,32.84
2022-08-24T07:51:09.149Z,33.11
2022-08-24T07:52:09.111Z,33.23
2022-08-24T07:53:13.831Z,32.43
2022-08-24T07:54:13.235Z,30.54
2022-08-24T07:55:09.082Z,30.32
2022-08-24T07:56:09.081Z,30.88
2022-08-24T07:57:09.106Z,31.46
2022-08-24T07:58:09.071Z,31.51
2022-08-24T07:59:13.064Z,31.81
2022-08-24T08:00:10.045Z,31.80
2022-08-24T08:01:09.049Z,31.44
2022-08-24T08:02:10.065Z,32.01
2022-08-24T08:03:09.111Z,32.27
2022-08-24T08:04:09.014Z,32.42
2022-08-24T08:05:09.010Z,31.43
2022-08-24T08:06:12.552Z,30.50
2022-08-24T08:07:11.026Z,30.37
2022-08-24T08:08:08.986Z,30.60
2022-08-24T08:09:08.991Z,30.72
2022-08-24T08:10:08.969Z,30.52
2022-08-24T08:11:08.974Z,30.44
2022-08-24T08:12:08.978Z,30.29
2022-08-24T08:13:08.954Z,30.28
2022-08-24T08:14:08.938Z,29.81
2022-08-24T08:15:08.940Z,30.50
2022-08-24T08:16:09.048Z,31.58
2022-08-24T08:17:08.936Z,32.43
2022-08-24T08:18:09.909Z,32.40
2022-08-24T08:19:10.618Z,32.74
2022-08-24T08:20:09.905Z,33.27
2022-08-24T08:21:13.734Z,33.76
2022-08-24T08:22:09.919Z,33.37
2022-08-24T08:23:08.889Z,32.60
2022-08-24T08:24:08.873Z,32.09
2022-08-24T08:25:08.870Z,32.31
2022-08-24T08:26:08.852Z,32.52
2022-08-24T08:27:08.883Z,33.47
2022-08-24T08:28:24.916Z,33.71
2022-08-24T08:29:09.828Z,34.14
2022-08-24T08:30:08.838Z,33.31
2022-08-24T08:31:08.856Z,33.12
2022-08-24T08:32:08.846Z,32.62
2022-08-24T08:33:08.813Z,33.08
2022-08-24T08:34:08.791Z,33.58
2022-08-24T08:35:08.788Z,33.16
2022-08-24T08:36:08.777Z,32.95
2022-08-24T08:37:08.812Z,32.68
2022-08-24T08:38:08.763Z,32.95
2022-08-24T08:39:08.763Z,33.24
2022-08-24T08:40:08.802Z,32.69
2022-08-24T08:41:08.733Z,32.43
2022-08-24T08:42:09.773Z,33.16
2022-08-24T08:43:08.743Z,33.46
2022-08-24T08:44:15.391Z,33.85
2022-08-24T08:45:08.744Z,33.65
2022-08-24T08:46:08.841Z,33.76
2022-08-24T08:47:08.751Z,33.63
2022-08-24T08:48:08.702Z,34.15
2022-08-24T08:49:08.702Z,33.80
2022-08-24T08:50:08.682Z,32.57
2022-08-24T08:51:11.770Z,32.46
2022-08-24T08:52:09.705Z,32.20
2022-08-24T08:53:08.671Z,31.77
2022-08-24T08:54:08.668Z,32.30
2022-08-24T08:55:08.654Z,32.62
2022-08-24T08:56:08.650Z,33.29
2022-08-24T08:57:12.056Z,33.90
2022-08-24T08:58:08.645Z,34.30
2022-08-24T08:59:08.630Z,33.65
2022-08-24T09:00:09.618Z,33.78
2022-08-24T09:01:08.642Z,34.59
2022-08-24T09:02:08.636Z,35.06
2022-08-24T09:03:08.603Z,33.76
2022-08-24T09:04:08.637Z,33.43
2022-08-24T09:05:08.592Z,33.49
2022-08-24T09:06:08.583Z,33.98
2022-08-24T09:07:08.611Z,34.12
2022-08-24T09:08:08.575Z,33.99
2022-08-24T09:09:08.560Z,34.86
2022-08-24T09:10:08.595Z,35.64
2022-08-24T09:11:08.558Z,35.48
2022-08-24T09:12:08.541Z,35.13
2022-08-24T09:13:08.575Z,35.21
2022-08-24T09:14:08.530Z,34.42
2022-08-24T09:15:08.521Z,34.05
2022-08-24T09:16:10.848Z,33.89
2022-08-24T09:17:12.916Z,33.87
2022-08-24T09:18:09.526Z,33.66
2022-08-24T09:19:08.488Z,34.22
2022-08-24T09:20:08.488Z,34.79
2022-08-24T09:21:08.497Z,34.78
2022-08-24T09:22:08.475Z,34.96
2022-08-24T09:23:08.493Z,35.30
2022-08-24T09:24:08.453Z,35.62
2022-08-24T09:25:08.455Z,34.51
2022-08-24T09:26:08.451Z,34.07
2022-08-24T09:27:08.442Z,33.56
2022-08-24T09:28:08.472Z,32.99
2022-08-24T09:29:08.426Z,33.23
2022-08-24T09:30:08.422Z,34.10
2022-08-24T09:31:08.496Z,34.70
2022-08-24T09:32:08.410Z,34.34
2022-08-24T09:33:08.449Z,34.27
2022-08-24T09:34:08.401Z,34.49
2022-08-24T09:35:08.389Z,35.09
2022-08-24T09:36:08.383Z,35.76
2022-08-24T09:37:08.383Z,35.89
2022-08-24T09:38:08.408Z,36.24
2022-08-24T09:39:08.361Z,36.48
2022-08-24T09:40:08.430Z,36.18
2022-08-24T09:41:08.354Z,35.84
2022-08-24T09:42:08.352Z,35.09
2022-08-24T09:43:08.381Z,34.91
2022-08-24T09:44:08.331Z,34.56
2022-08-24T09:45:09.339Z,34.26
2022-08-24T09:46:08.368Z,34.61
2022-08-24T09:47:08.329Z,34.70
2022-08-24T09:48:08.344Z,35.33
2022-08-24T09:49:14.002Z,35.31
2022-08-24T09:50:10.307Z,34.89
2022-08-24T09:51:08.279Z,33.65
2022-08-24T09:52:08.295Z,33.84
2022-08-24T09:53:08.305Z,34.61
2022-08-24T09:54:08.274Z,34.47
2022-08-24T09:55:08.262Z,34.71
2022-08-24T09:56:08.249Z,34.20
2022-08-24T09:57:12.622Z,33.93
2022-08-24T09:58:09.831Z,34.12
2022-08-24T09:59:08.238Z,34.11
2022-08-24T10:00:08.232Z,34.63
2022-08-24T10:01:08.275Z,34.29
2022-08-24T10:02:08.283Z,34.71
2022-08-24T10:03:08.234Z,35.06
2022-08-24T10:04:08.210Z,35.39
2022-08-24T10:05:08.296Z,35.84
2022-08-24T10:06:08.334Z,36.58
2022-08-24T10:07:08.186Z,36.44
2022-08-24T10:08:08.235Z,35.73
2022-08-24T10:09:08.180Z,35.31
2022-08-24T10:10:08.180Z,35.31
2022-08-24T10:11:08.165Z,35.40
2022-08-24T10:12:08.173Z,36.39
2022-08-24T10:13:08.185Z,35.39
2022-08-24T10:14:08.154Z,35.30
2022-08-24T10:15:08.599Z,35.34
2022-08-24T10:16:08.164Z,35.01
2022-08-24T10:17:08.133Z,34.89
2022-08-24T10:18:08.154Z,35.24
2022-08-24T10:19:08.116Z,36.18
2022-08-24T10:20:08.140Z,36.02
2022-08-24T10:21:08.104Z,34.52
2022-08-24T10:22:08.105Z,33.96
2022-08-24T10:23:08.127Z,34.21
2022-08-24T10:24:08.082Z,34.79
2022-08-24T10:25:08.083Z,34.45
2022-08-24T10:26:08.072Z,34.63
2022-08-24T10:27:08.068Z,35.08
2022-08-24T10:28:08.074Z,35.77
2022-08-24T10:29:08.075Z,35.53
2022-08-24T10:30:08.044Z,36.01
2022-08-24T10:31:12.479Z,35.48
2022-08-24T10:32:09.031Z,34.91
2022-08-24T10:33:08.027Z,35.13
2022-08-24T10:34:08.058Z,35.58
2022-08-24T10:35:08.200Z,35.83
2022-08-24T10:36:08.010Z,36.81
2022-08-24T10:37:07.995Z,37.37
2022-08-24T10:38:07.992Z,37.81
2022-08-24T10:39:08.021Z,36.52
2022-08-24T10:40:09.602Z,35.87
2022-08-24T10:41:07.989Z,35.67
2022-08-24T10:42:07.974Z,35.83
2022-08-24T10:43:07.964Z,35.43
2022-08-24T10:44:07.983Z,35.60
2022-08-24T10:45:07.954Z,36.25
2022-08-24T10:46:08.028Z,37.09
2022-08-24T10:47:07.932Z,37.56
2022-08-24T10:48:07.953Z,38.00
2022-08-24T10:49:07.959Z,38.12
2022-08-24T10:50:07.920Z,36.62
2022-08-24T10:51:07.911Z,35.21
2022-08-24T10:52:15.957Z,35.39
2022-08-24T10:53:08.897Z,35.23
2022-08-24T10:54:07.924Z,35.98
2022-08-24T10:55:07.899Z,36.86
2022-08-24T10:56:07.882Z,36.51
2022-08-24T10:57:12.062Z,36.19
2022-08-24T10:58:29.884Z,37.22
2022-08-24T10:59:08.861Z,37.62
2022-08-24T11:00:07.872Z,37.26
2022-08-24T11:01:07.905Z,35.90
2022-08-24T11:02:12.384Z,36.28
2022-08-24T11:03:08.838Z,36.41
2022-08-24T11:04:07.871Z,35.06
2022-08-24T11:05:07.832Z,35.40
2022-08-24T11:06:07.820Z,35.89
2022-08-24T11:07:07.824Z,36.56
2022-08-24T11:08:07.814Z,37.07
2022-08-24T11:09:07.837Z,37.53
2022-08-24T11:10:07.814Z,37.59
2022-08-24T11:11:07.797Z,37.99
2022-08-24T11:12:07.796Z,37.72
2022-08-24T11:13:07.782Z,38.20
2022-08-24T11:14:08.500Z,38.36
2022-08-24T11:15:07.766Z,37.31
2022-08-24T11:16:07.825Z,36.12
2022-08-24T11:17:07.766Z,36.30
2022-08-24T11:18:07.758Z,37.00
2022-08-24T11:19:07.781Z,37.23
2022-08-24T11:20:07.756Z,36.81
2022-08-24T11:21:07.734Z,36.63
2022-08-24T11:22:07.732Z,35.87
2022-08-24T11:23:07.728Z,36.43
2022-08-24T11:24:07.748Z,37.39
2022-08-24T11:25:07.716Z,37.84
2022-08-24T11:26:07.728Z,37.87
2022-08-24T11:27:07.699Z,37.74
2022-08-24T11:28:07.705Z,37.12
2022-08-24T11:29:07.729Z,37.27
2022-08-24T11:30:07.705Z,37.66
2022-08-24T11:31:07.748Z,38.56
2022-08-24T11:32:07.674Z,38.24
2022-08-24T11:33:07.666Z,37.09
2022-08-24T11:34:07.689Z,36.77
2022-08-24T11:35:07.649Z,37.41
2022-08-24T11:36:07.646Z,37.72
2022-08-24T11:37:07.676Z,38.10
2022-08-24T11:38:07.635Z,38.51
2022-08-24T11:39:07.663Z,38.58
2022-08-24T11:40:07.676Z,37.68
2022-08-24T11:41:07.722Z,37.12
2022-08-24T11:42:07.610Z,36.61
2022-08-24T11:43:07.604Z,36.58
2022-08-24T11:44:07.652Z,37.37
2022-08-24T11:45:07.613Z,37.41
2022-08-24T11:46:07.596Z,36.78
2022-08-24T11:47:07.665Z,37.22
2022-08-24T11:48:07.573Z,37.31
2022-08-24T11:49:07.581Z,36.61
2022-08-24T11:50:07.598Z,36.67
2022-08-24T11:51:07.556Z,37.45
2022-08-24T11:52:07.558Z,38.17
2022-08-24T11:53:12.585Z,38.33
2022-08-24T11:54:08.567Z,38.84
2022-08-24T11:55:07.566Z,38.97
2022-08-24T11:56:08.025Z,38.55
2022-08-24T11:57:08.550Z,37.93
2022-08-24T11:58:07.521Z,37.91
2022-08-24T11:59:07.514Z,37.39
2022-08-24T12:00:07.554Z,36.41
2022-08-24T12:01:07.513Z,35.90
2022-08-24T12:02:07.581Z,36.24
2022-08-24T12:03:07.631Z,36.18
2022-08-24T12:04:07.485Z,36.22
2022-08-24T12:05:07.513Z,36.53
2022-08-24T12:06:07.473Z,36.25
2022-08-24T12:07:07.463Z,35.40
2022-08-24T12:08:07.850Z,35.57
2022-08-24T12:09:07.453Z,36.18
2022-08-24T12:10:07.477Z,36.93
2022-08-24T12:11:07.442Z,37.30
2022-08-24T12:12:07.450Z,37.43
2022-08-24T12:13:07.438Z,37.29
2022-08-24T12:14:07.430Z,37.93
2022-08-24T12:15:07.464Z,37.69
2022-08-24T12:16:07.458Z,36.92
2022-08-24T12:17:07.423Z,36.83
2022-08-24T12:18:07.407Z,37.33
2022-08-24T12:19:07.410Z,37.29
2022-08-24T12:20:07.418Z,36.04
2022-08-24T12:21:12.175Z,35.08
2022-08-24T12:22:09.376Z,35.83
2022-08-24T12:23:07.708Z,35.80
2022-08-24T12:24:07.369Z,35.58
2022-08-24T12:25:07.388Z,36.25
2022-08-24T12:26:07.345Z,36.99
2022-08-24T12:27:07.342Z,37.53
2022-08-24T12:28:07.349Z,37.42
2022-08-24T12:29:07.341Z,36.25
2022-08-24T12:30:07.363Z,36.30
2022-08-24T12:31:07.347Z,36.46
2022-08-24T12:32:07.310Z,37.14
2022-08-24T12:33:07.302Z,37.33
2022-08-24T12:34:09.672Z,36.85
2022-08-24T12:35:08.321Z,37.09
2022-08-24T12:36:07.295Z,36.61
2022-08-24T12:37:10.792Z,36.58
2022-08-24T12:38:08.287Z,35.95
2022-08-24T12:39:07.255Z,34.86
2022-08-24T12:40:07.340Z,35.18
2022-08-24T12:41:19.359Z,36.02
2022-08-24T12:42:08.248Z,35.86
2022-08-24T12:43:07.241Z,35.68
2022-08-24T12:44:07.224Z,35.68
2022-08-24T12:45:07.263Z,35.98
2022-08-24T12:46:07.408Z,35.38
2022-08-24T12:47:07.225Z,35.80
2022-08-24T12:48:07.202Z,36.46
2022-08-24T12:49:07.202Z,37.19
2022-08-24T12:50:07.210Z,37.84
2022-08-24T12:51:08.185Z,36.74
2022-08-24T12:52:07.179Z,35.62
2022-08-24T12:53:12.199Z,35.53
2022-08-24T12:54:08.161Z,35.23